createdAt,value
2023-05-06T00:00:53.302Z,0.58
2023-05-06T00:01:53.317Z,0.58
2023-05-06T00:02:53.464Z,0.58
2023-05-06T00:03:53.573Z,0.58
2023-05-06T00:04:53.509Z,0.58
2023-05-06T00:05:53.464Z,0.57
2023-05-06T00:06:53.585Z,0.59
2023-05-06T00:07:53.576Z,0.58
2023-05-06T00:08:53.564Z,0.58
2023-05-06T00:09:53.639Z,0.58
2023-05-06T00:10:53.724Z,0.58
2023-05-06T00:11:53.697Z,0.57
2023-05-06T00:12:53.953Z,0.58
2023-05-06T00:13:53.782Z,0.58
2023-05-06T00:14:53.826Z,0.58
2023-05-06T00:15:53.869Z,0.58
2023-05-06T00:16:53.895Z,0.58
2023-05-06T00:17:54.443Z,0.57
2023-05-06T00:18:53.968Z,0.58
2023-05-06T00:19:54.028Z,0.57
2023-05-06T00:20:54.069Z,0.58
2023-05-06T00:21:54.126Z,0.58
2023-05-06T00:22:54.211Z,0.57
2023-05-06T00:23:54.200Z,0.58
2023-05-06T00:24:54.269Z,0.58
2023-05-06T00:25:54.266Z,0.57
2023-05-06T00:26:54.333Z,0.56
2023-05-06T00:27:54.346Z,0.56
2023-05-06T00:28:54.386Z,0.57
2023-05-06T00:29:54.426Z,0.58
2023-05-06T00:30:54.487Z,0.57
2023-05-06T00:31:54.532Z,0.57
2023-05-06T00:32:54.727Z,0.58
2023-05-06T00:33:54.601Z,0.57
2023-05-06T00:34:54.636Z,0.57
2023-05-06T00:35:54.701Z,0.57
2023-05-06T00:36:54.710Z,0.57
2023-05-06T00:37:54.773Z,0.58
2023-05-06T00:38:55.001Z,0.57
2023-05-06T00:39:54.858Z,0.57
2023-05-06T00:40:54.923Z,0.57
2023-05-06T00:41:54.976Z,0.57
2023-05-06T00:42:54.992Z,0.57
2023-05-06T00:43:55.044Z,0.56
2023-05-06T00:44:55.081Z,0.56
2023-05-06T00:45:55.146Z,0.56
2023-05-06T00:46:55.177Z,0.57
2023-05-06T00:47:55.243Z,0.56
2023-05-06T00:48:55.276Z,0.57
2023-05-06T00:49:55.295Z,0.57
2023-05-06T00:50:55.347Z,0.56
2023-05-06T00:51:55.376Z,0.56
2023-05-06T00:52:55.423Z,0.56
2023-05-06T00:53:55.465Z,0.57
2023-05-06T00:54:55.527Z,0.56
2023-05-06T00:55:55.569Z,0.57
2023-05-06T00:56:55.626Z,0.56
2023-05-06T00:57:55.658Z,0.56
2023-05-06T00:58:55.777Z,0.57
2023-05-06T00:59:55.757Z,0.56
2023-05-06T01:00:55.822Z,0.56
2023-05-06T01:01:55.863Z,0.56
2023-05-06T01:02:55.917Z,0.55
2023-05-06T01:03:56.021Z,0.56
2023-05-06T01:04:55.996Z,0.56
2023-05-06T01:05:56.053Z,0.56
2023-05-06T01:06:56.098Z,0.55
2023-05-06T01:07:56.162Z,0.56
2023-05-06T01:08:56.173Z,0.56
2023-05-06T01:09:56.222Z,0.55
2023-05-06T01:10:56.290Z,0.55
2023-05-06T01:11:56.327Z,0.56
2023-05-06T01:12:56.412Z,0.56
2023-05-06T01:13:56.420Z,0.56
2023-05-06T01:14:56.459Z,0.56
2023-05-06T01:15:56.527Z,0.56
2023-05-06T01:16:56.608Z,0.55
2023-05-06T01:17:56.681Z,0.57
2023-05-06T01:18:56.652Z,0.55
2023-05-06T01:19:56.704Z,0.56
2023-05-06T01:20:56.804Z,0.56
2023-05-06T01:21:56.786Z,0.55
2023-05-06T01:22:56.877Z,0.55
2023-05-06T01:23:56.897Z,0.56
2023-05-06T01:24:56.955Z,0.56
2023-05-06T01:25:57.005Z,0.56
2023-05-06T01:26:57.073Z,0.55
2023-05-06T01:27:57.067Z,0.56
2023-05-06T01:28:57.113Z,0.56
2023-05-06T01:29:57.149Z,0.56
2023-05-06T01:30:57.216Z,0.55
2023-05-06T01:31:57.233Z,0.55
2023-05-06T01:32:57.370Z,0.56
2023-05-06T01:33:57.357Z,0.56
2023-05-06T01:34:57.408Z,0.56
2023-05-06T01:35:57.426Z,0.55
2023-05-06T01:36:57.481Z,0.55
2023-05-06T01:37:57.540Z,0.55
2023-05-06T01:38:57.589Z,0.54
2023-05-06T01:39:57.670Z,0.54
2023-05-06T01:40:57.637Z,0.55
2023-05-06T01:41:57.744Z,0.55
2023-05-06T01:42:57.947Z,0.54
2023-05-06T01:43:57.802Z,0.55
2023-05-06T01:44:57.863Z,0.55
2023-05-06T01:45:58.494Z,0.55
2023-05-06T01:46:57.971Z,0.56
2023-05-06T01:47:58.081Z,0.54
2023-05-06T01:48:58.058Z,0.55
2023-05-06T01:49:58.078Z,0.55
2023-05-06T01:50:58.117Z,0.55
2023-05-06T01:51:58.193Z,0.54
2023-05-06T01:52:58.253Z,0.54
2023-05-06T01:53:58.321Z,0.55
2023-05-06T01:54:58.330Z,0.55
2023-05-06T01:55:58.385Z,0.54
2023-05-06T01:56:58.434Z,0.54
2023-05-06T01:57:58.492Z,0.54
2023-05-06T01:58:59.493Z,0.53
2023-05-06T01:59:58.589Z,0.55
2023-05-06T02:00:58.660Z,0.55
2023-05-06T02:01:58.774Z,0.55
2023-05-06T02:02:58.791Z,0.55
2023-05-06T02:03:58.879Z,0.55
2023-05-06T02:04:58.840Z,0.54
2023-05-06T02:05:58.868Z,0.54
2023-05-06T02:06:58.912Z,0.55
2023-05-06T02:07:59.014Z,0.53
2023-05-06T02:08:59.036Z,0.54
2023-05-06T02:09:59.088Z,0.54
2023-05-06T02:10:59.122Z,0.54
2023-05-06T02:11:59.173Z,0.54
2023-05-06T02:12:59.277Z,0.55
2023-05-06T02:13:59.263Z,0.54
2023-05-06T02:14:59.442Z,0.54
2023-05-06T02:15:59.412Z,0.54
2023-05-06T02:16:59.391Z,0.54
2023-05-06T02:17:59.530Z,0.53
2023-05-06T02:18:59.504Z,0.54
2023-05-06T02:19:59.562Z,0.54
2023-05-06T02:20:59.604Z,0.55
2023-05-06T02:21:59.637Z,0.53
2023-05-06T02:22:59.962Z,0.53
2023-05-06T02:23:59.753Z,0.54
2023-05-06T02:24:59.773Z,0.54
2023-05-06T02:25:59.822Z,0.54
2023-05-06T02:26:59.880Z,0.54
2023-05-06T02:27:59.947Z,0.53
2023-05-06T02:28:59.955Z,0.53
2023-05-06T02:30:00.052Z,0.54
2023-05-06T02:31:00.244Z,0.54
2023-05-06T02:32:00.165Z,0.53
2023-05-06T02:33:00.502Z,0.54
2023-05-06T02:34:00.201Z,0.54
2023-05-06T02:35:00.247Z,0.55
2023-05-06T02:36:00.330Z,0.53
2023-05-06T02:37:00.373Z,0.53
2023-05-06T02:38:00.434Z,0.54
2023-05-06T02:39:00.435Z,0.53
2023-05-06T02:40:00.498Z,0.52
2023-05-06T02:41:00.575Z,0.54
2023-05-06T02:42:00.613Z,0.54
2023-05-06T02:43:00.659Z,0.53
2023-05-06T02:44:00.708Z,0.54
2023-05-06T02:45:00.735Z,0.53
2023-05-06T02:46:00.839Z,0.54
2023-05-06T02:47:00.905Z,0.53
2023-05-06T02:48:00.973Z,0.54
2023-05-06T02:49:00.965Z,0.53
2023-05-06T02:50:00.988Z,0.53
2023-05-06T02:51:01.062Z,0.54
2023-05-06T02:52:01.123Z,0.53
2023-05-06T02:53:01.153Z,0.52
2023-05-06T02:54:01.194Z,0.53
2023-05-06T02:55:01.273Z,0.54
2023-05-06T02:56:01.308Z,0.53
2023-05-06T02:57:01.340Z,0.53
2023-05-06T02:58:01.423Z,0.53
2023-05-06T02:59:01.512Z,0.53
2023-05-06T03:00:01.507Z,0.53
2023-05-06T03:01:01.564Z,0.52
2023-05-06T03:02:01.660Z,0.55
2023-05-06T03:03:01.785Z,0.52
2023-05-06T03:04:01.790Z,0.53
2023-05-06T03:05:01.814Z,0.53
2023-05-06T03:06:01.813Z,0.52
2023-05-06T03:07:01.860Z,0.52
2023-05-06T03:08:01.931Z,0.52
2023-05-06T03:09:01.985Z,0.53
2023-05-06T03:10:02.039Z,0.53
2023-05-06T03:11:02.080Z,0.52
2023-05-06T03:12:02.135Z,0.53
2023-05-06T03:13:02.339Z,0.52
2023-05-06T03:14:02.236Z,0.54
2023-05-06T03:15:02.283Z,0.53
2023-05-06T03:16:02.332Z,0.52
2023-05-06T03:17:02.383Z,0.53
2023-05-06T03:18:02.512Z,0.53
2023-05-06T03:19:02.569Z,0.52
2023-05-06T03:20:02.572Z,0.52
2023-05-06T03:21:02.645Z,0.52
2023-05-06T03:22:02.642Z,0.52
2023-05-06T03:23:02.667Z,0.53
2023-05-06T03:24:02.740Z,0.51
2023-05-06T03:25:02.760Z,0.51
2023-05-06T03:26:02.793Z,0.53
2023-05-06T03:27:02.864Z,0.53
2023-05-06T03:28:02.909Z,0.52
2023-05-06T03:29:02.947Z,0.52
2023-05-06T03:30:03.001Z,0.52
2023-05-06T03:31:03.169Z,0.51
2023-05-06T03:32:03.122Z,0.51
2023-05-06T03:33:03.170Z,0.52
2023-05-06T03:34:03.211Z,0.51
2023-05-06T03:35:03.237Z,0.52
2023-05-06T03:36:03.331Z,0.53
2023-05-06T03:37:03.371Z,0.53
2023-05-06T03:38:03.415Z,0.52
2023-05-06T03:39:03.476Z,0.51
2023-05-06T03:40:03.528Z,0.50
2023-05-06T03:41:03.557Z,0.52
2023-05-06T03:42:03.656Z,0.51
2023-05-06T03:43:03.681Z,0.51
2023-05-06T03:44:03.761Z,0.52
2023-05-06T03:45:03.818Z,0.52
2023-05-06T03:46:03.916Z,0.52
2023-05-06T03:47:03.898Z,0.51
2023-05-06T03:48:04.055Z,0.52
2023-05-06T03:49:04.014Z,0.52
2023-05-06T03:50:04.045Z,0.51
2023-05-06T03:51:04.127Z,0.52
2023-05-06T03:52:04.174Z,0.51
2023-05-06T03:53:04.251Z,0.51
2023-05-06T03:54:04.252Z,0.51
2023-05-06T03:55:04.274Z,0.51
2023-05-06T03:56:04.368Z,0.51
2023-05-06T03:57:04.412Z,0.51
2023-05-06T03:58:04.470Z,0.51
2023-05-06T03:59:04.507Z,0.52
2023-05-06T04:00:04.547Z,0.51
2023-05-06T04:01:04.615Z,0.51
2023-05-06T04:02:04.668Z,0.50
2023-05-06T04:03:04.853Z,0.50
2023-05-06T04:04:04.803Z,0.51
2023-05-06T04:05:04.838Z,0.51
2023-05-06T04:06:04.916Z,0.51
2023-05-06T04:07:04.944Z,0.51
2023-05-06T04:08:04.996Z,0.50
2023-05-06T04:09:05.040Z,0.51
2023-05-06T04:10:05.105Z,0.50
2023-05-06T04:11:05.149Z,0.50
2023-05-06T04:12:05.181Z,0.51
2023-05-06T04:13:05.285Z,0.50
2023-05-06T04:14:05.327Z,0.51
2023-05-06T04:15:05.364Z,0.50
2023-05-06T04:16:05.492Z,0.52
2023-05-06T04:17:05.502Z,0.52
2023-05-06T04:18:05.602Z,0.51
2023-05-06T04:19:06.460Z,0.50
2023-05-06T04:20:05.622Z,0.51
2023-05-06T04:21:05.686Z,0.52
2023-05-06T04:22:05.736Z,0.51
2023-05-06T04:23:05.869Z,0.52
2023-05-06T04:24:05.842Z,0.52
2023-05-06T04:25:05.918Z,0.52
2023-05-06T04:26:05.961Z,0.52
2023-05-06T04:27:06.054Z,0.52
2023-05-06T04:28:06.098Z,0.51
2023-05-06T04:29:06.102Z,0.51
2023-05-06T04:30:06.180Z,0.51
2023-05-06T04:31:06.241Z,0.50
2023-05-06T04:32:06.350Z,0.52
2023-05-06T04:33:06.347Z,0.51
2023-05-06T04:34:06.400Z,0.51
2023-05-06T04:35:06.484Z,0.52
2023-05-06T04:36:06.541Z,0.52
2023-05-06T04:37:06.545Z,0.52
2023-05-06T04:38:06.598Z,0.51
2023-05-06T04:39:06.797Z,0.51
2023-05-06T04:40:06.688Z,0.51
2023-05-06T04:41:06.765Z,0.50
2023-05-06T04:42:06.809Z,0.52
2023-05-06T04:43:06.870Z,0.51
2023-05-06T04:44:06.898Z,0.51
2023-05-06T04:45:06.970Z,0.51
2023-05-06T04:46:07.071Z,0.51
2023-05-06T04:47:07.038Z,0.51
2023-05-06T04:48:07.140Z,0.50
2023-05-06T04:49:07.147Z,0.51
2023-05-06T04:50:07.242Z,0.51
2023-05-06T04:51:07.318Z,0.51
2023-05-06T04:52:07.308Z,0.51
2023-05-06T04:53:07.401Z,0.51
2023-05-06T04:54:07.429Z,0.51
2023-05-06T04:55:07.591Z,0.51
2023-05-06T04:56:07.576Z,0.51
2023-05-06T04:57:07.624Z,0.51
2023-05-06T04:58:07.724Z,0.50
2023-05-06T04:59:07.713Z,0.51
2023-05-06T05:00:07.959Z,0.51
2023-05-06T05:01:07.889Z,0.52
2023-05-06T05:02:07.867Z,0.50
2023-05-06T05:03:08.073Z,0.51
2023-05-06T05:04:07.981Z,0.52
2023-05-06T05:05:08.124Z,0.51
2023-05-06T05:06:08.155Z,0.52
2023-05-06T05:07:08.137Z,0.51
2023-05-06T05:08:08.171Z,0.51
2023-05-06T05:09:08.266Z,0.51
2023-05-06T05:10:08.302Z,0.51
2023-05-06T05:11:08.337Z,0.50
2023-05-06T05:12:08.397Z,0.51
2023-05-06T05:13:08.493Z,0.51
2023-05-06T05:14:08.517Z,0.52
2023-05-06T05:15:08.776Z,0.51
2023-05-06T05:16:08.605Z,0.52
2023-05-06T05:17:08.719Z,0.52
2023-05-06T05:18:08.742Z,0.51
2023-05-06T05:19:09.514Z,0.52
2023-05-06T05:20:08.786Z,0.51
2023-05-06T05:21:08.855Z,0.52
2023-05-06T05:22:08.901Z,0.52
2023-05-06T05:23:08.941Z,0.52
2023-05-06T05:24:08.987Z,0.51
2023-05-06T05:25:09.115Z,0.52
2023-05-06T05:26:09.086Z,0.52
2023-05-06T05:27:09.215Z,0.52
2023-05-06T05:28:09.543Z,0.51
2023-05-06T05:29:09.235Z,0.52
2023-05-06T05:30:09.291Z,0.51
2023-05-06T05:31:10.678Z,0.51
2023-05-06T05:32:09.393Z,0.52
2023-05-06T05:33:09.701Z,0.51
2023-05-06T05:34:09.512Z,0.52
2023-05-06T05:35:09.762Z,0.51
2023-05-06T05:36:09.618Z,0.52
2023-05-06T05:37:09.647Z,0.51
2023-05-06T05:38:09.725Z,0.52
2023-05-06T05:39:09.771Z,0.51
2023-05-06T05:40:09.851Z,0.50
2023-05-06T05:41:09.860Z,0.51
2023-05-06T05:42:09.928Z,0.51
2023-05-06T05:43:09.955Z,0.51
2023-05-06T05:44:09.998Z,0.51
2023-05-06T05:45:10.192Z,0.52
2023-05-06T05:46:10.107Z,0.51
2023-05-06T05:47:10.130Z,0.51
2023-05-06T05:48:10.169Z,0.51
2023-05-06T05:49:10.169Z,0.51
2023-05-06T05:50:10.237Z,0.52
2023-05-06T05:51:10.297Z,0.51
2023-05-06T05:52:10.387Z,0.52
2023-05-06T05:53:10.386Z,0.51
2023-05-06T05:54:10.379Z,0.51
2023-05-06T05:55:10.553Z,0.52
2023-05-06T05:56:10.502Z,0.51
2023-05-06T05:57:10.532Z,0.52
2023-05-06T05:58:10.600Z,0.51
2023-05-06T05:59:10.711Z,0.52
2023-05-06T06:00:13.304Z,0.51
2023-05-06T06:01:10.676Z,0.51
2023-05-06T06:02:10.677Z,0.51
2023-05-06T06:03:10.715Z,0.51
2023-05-06T06:04:10.758Z,0.51
2023-05-06T06:05:10.868Z,0.50
2023-05-06T06:06:10.674Z,0.51
2023-05-06T06:07:10.671Z,0.51
2023-05-06T06:08:10.665Z,0.51
2023-05-06T06:09:10.645Z,0.51
2023-05-06T06:10:10.654Z,0.52
2023-05-06T06:11:10.641Z,0.52
2023-05-06T06:12:10.602Z,0.52
2023-05-06T06:13:10.646Z,0.51
2023-05-06T06:14:10.619Z,0.51
2023-05-06T06:15:10.892Z,0.51
2023-05-06T06:16:10.619Z,0.52
2023-05-06T06:17:10.559Z,0.52
2023-05-06T06:18:10.657Z,0.52
2023-05-06T06:19:10.583Z,0.53
2023-05-06T06:20:10.562Z,0.51
2023-05-06T06:21:10.565Z,0.51
2023-05-06T06:22:10.546Z,0.51
2023-05-06T06:23:10.558Z,0.52
2023-05-06T06:24:10.553Z,0.51
2023-05-06T06:25:10.840Z,0.51
2023-05-06T06:26:12.186Z,0.51
2023-05-06T06:27:10.505Z,0.52
2023-05-06T06:28:10.548Z,0.51
2023-05-06T06:29:10.501Z,0.51
2023-05-06T06:30:10.496Z,0.51
2023-05-06T06:31:10.553Z,0.51
2023-05-06T06:32:10.617Z,0.52
2023-05-06T06:33:10.494Z,0.51
2023-05-06T06:34:10.451Z,0.52
2023-05-06T06:35:10.624Z,0.51
2023-05-06T06:36:10.519Z,0.51
2023-05-06T06:37:10.539Z,0.50
2023-05-06T06:38:10.640Z,0.51
2023-05-06T06:39:10.647Z,0.51
2023-05-06T06:40:10.694Z,0.51
2023-05-06T06:41:10.765Z,0.52
2023-05-06T06:42:10.819Z,0.51
2023-05-06T06:43:10.861Z,0.50
2023-05-06T06:44:10.903Z,0.51
2023-05-06T06:45:11.150Z,0.51
2023-05-06T06:46:11.063Z,0.51
2023-05-06T06:47:11.136Z,0.52
2023-05-06T06:48:11.153Z,0.51
2023-05-06T06:49:11.168Z,0.50
2023-05-06T06:50:11.255Z,0.51
2023-05-06T06:51:11.302Z,0.51
2023-05-06T06:52:11.361Z,0.51
2023-05-06T06:53:11.384Z,0.51
2023-05-06T06:54:11.398Z,0.51
2023-05-06T06:55:11.701Z,0.51
2023-05-06T06:56:11.520Z,0.51
2023-05-06T06:57:11.569Z,0.51
2023-05-06T06:58:11.653Z,0.51
2023-05-06T06:59:11.646Z,0.51
2023-05-06T07:00:11.731Z,0.52
2023-05-06T07:01:11.832Z,0.51
2023-05-06T07:02:11.840Z,0.51
2023-05-06T07:03:11.965Z,0.52
2023-05-06T07:04:11.978Z,0.51
2023-05-06T07:05:12.229Z,0.52
2023-05-06T07:06:12.086Z,0.51
2023-05-06T07:07:12.085Z,0.51
2023-05-06T07:08:12.143Z,0.51
2023-05-06T07:09:12.207Z,0.51
2023-05-06T07:10:12.236Z,0.52
2023-05-06T07:11:12.296Z,0.51
2023-05-06T07:12:12.390Z,0.51
2023-05-06T07:13:12.482Z,0.51
2023-05-06T07:14:12.467Z,0.51
2023-05-06T07:15:12.624Z,0.52
2023-05-06T07:16:12.575Z,0.52
2023-05-06T07:17:12.672Z,0.50
2023-05-06T07:18:12.731Z,0.50
2023-05-06T07:19:12.806Z,0.51
2023-05-06T07:20:12.776Z,0.51
2023-05-06T07:21:12.815Z,0.51
2023-05-06T07:22:12.885Z,0.51
2023-05-06T07:23:12.916Z,0.52
2023-05-06T07:24:12.964Z,0.52
2023-05-06T07:25:13.202Z,0.50
2023-05-06T07:26:13.124Z,0.51
2023-05-06T07:27:13.149Z,0.51
2023-05-06T07:28:13.191Z,0.52
2023-05-06T07:29:13.257Z,0.51
2023-05-06T07:30:13.309Z,0.51
2023-05-06T07:31:13.386Z,0.51
2023-05-06T07:32:13.388Z,0.51
2023-05-06T07:33:13.421Z,0.51
2023-05-06T07:34:13.512Z,0.51
2023-05-06T07:35:13.636Z,0.51
2023-05-06T07:36:13.626Z,0.51
2023-05-06T07:37:13.657Z,0.52
2023-05-06T07:38:13.715Z,0.51
2023-05-06T07:39:13.780Z,0.52
2023-05-06T07:40:13.794Z,0.52
2023-05-06T07:41:13.933Z,0.52
2023-05-06T07:42:13.915Z,0.52
2023-05-06T07:43:13.998Z,0.52
2023-05-06T07:44:14.023Z,0.52
2023-05-06T07:45:14.070Z,0.52
2023-05-06T07:46:14.120Z,0.51
2023-05-06T07:47:14.204Z,0.52
2023-05-06T07:48:14.278Z,0.51
2023-05-06T07:49:14.258Z,0.51
2023-05-06T07:50:14.351Z,0.52
2023-05-06T07:51:14.519Z,0.51
2023-05-06T07:52:14.424Z,0.51
2023-05-06T07:53:14.475Z,0.51
2023-05-06T07:54:14.498Z,0.52
2023-05-06T07:55:14.558Z,0.50
2023-05-06T07:56:14.603Z,0.51
2023-05-06T07:57:14.660Z,0.51
2023-05-06T07:58:14.718Z,0.51
2023-05-06T07:59:14.741Z,0.51
2023-05-06T08:00:14.786Z,0.51
2023-05-06T08:01:14.837Z,0.51
2023-05-06T08:02:14.927Z,0.51
2023-05-06T08:03:15.022Z,0.50
2023-05-06T08:04:15.089Z,0.52
2023-05-06T08:05:15.036Z,0.52
2023-05-06T08:06:15.083Z,0.52
2023-05-06T08:07:15.196Z,0.52
2023-05-06T08:08:15.201Z,0.51
2023-05-06T08:09:22.688Z,0.50
2023-05-06T08:10:16.241Z,0.50
2023-05-06T08:11:16.103Z,0.51
2023-05-06T08:12:15.225Z,0.51
2023-05-06T08:13:15.250Z,0.51
2023-05-06T08:14:15.194Z,0.52
2023-05-06T08:15:15.171Z,0.52
2023-05-06T08:16:15.240Z,0.52
2023-05-06T08:17:15.187Z,0.51
2023-05-06T08:18:22.301Z,0.52
2023-05-06T08:19:16.171Z,0.52
2023-05-06T08:20:15.160Z,0.52
2023-05-06T08:21:15.161Z,0.52
2023-05-06T08:22:15.153Z,0.52
2023-05-06T08:23:15.189Z,0.51
2023-05-06T08:24:15.148Z,0.52
2023-05-06T08:25:15.106Z,0.51
2023-05-06T08:26:15.115Z,0.51
2023-05-06T08:27:15.113Z,0.50
2023-05-06T08:28:15.084Z,0.52
2023-05-06T08:29:15.097Z,0.52
2023-05-06T08:30:15.135Z,0.52
2023-05-06T08:31:15.259Z,0.51
2023-05-06T08:32:15.213Z,0.51
2023-05-06T08:33:15.338Z,0.51
2023-05-06T08:34:15.334Z,0.50
2023-05-06T08:35:15.393Z,0.51
2023-05-06T08:36:15.415Z,0.50
2023-05-06T08:37:15.505Z,0.51
2023-05-06T08:38:15.628Z,0.51
2023-05-06T08:39:15.604Z,0.51
2023-05-06T08:40:15.659Z,0.51
2023-05-06T08:41:15.699Z,0.51
2023-05-06T08:42:15.739Z,0.52
2023-05-06T08:43:15.785Z,0.50
2023-05-06T08:44:15.853Z,0.51
2023-05-06T08:45:15.890Z,0.51
2023-05-06T08:46:16.016Z,0.51
2023-05-06T08:47:15.983Z,0.52
2023-05-06T08:48:16.027Z,0.51
2023-05-06T08:49:16.074Z,0.51
2023-05-06T08:50:16.112Z,0.51
2023-05-06T08:51:16.186Z,0.51
2023-05-06T08:52:16.256Z,0.51
2023-05-06T08:53:16.295Z,0.52
2023-05-06T08:54:16.335Z,0.51
2023-05-06T08:55:16.412Z,0.51
2023-05-06T08:56:16.434Z,0.51
2023-05-06T08:57:16.475Z,0.52
2023-05-06T08:58:16.524Z,0.51
2023-05-06T08:59:16.543Z,0.51
2023-05-06T09:00:16.605Z,0.51
2023-05-06T09:01:16.732Z,0.51
2023-05-06T09:02:16.782Z,0.51
2023-05-06T09:03:16.869Z,0.52
2023-05-06T09:04:16.786Z,0.51
2023-05-06T09:05:16.819Z,0.51
2023-05-06T09:06:16.855Z,0.51
2023-05-06T09:07:16.945Z,0.51
2023-05-06T09:08:16.987Z,0.52
2023-05-06T09:09:17.024Z,0.50
2023-05-06T09:10:17.080Z,0.50
2023-05-06T09:11:17.112Z,0.51
2023-05-06T09:12:17.149Z,0.52
2023-05-06T09:13:17.207Z,0.52
2023-05-06T09:14:17.212Z,0.51
2023-05-06T09:15:17.283Z,0.51
2023-05-06T09:16:17.334Z,0.51
2023-05-06T09:17:17.384Z,0.51
2023-05-06T09:18:17.420Z,0.51
2023-05-06T09:19:17.491Z,0.52
2023-05-06T09:20:17.502Z,0.52
2023-05-06T09:21:17.560Z,0.51
2023-05-06T09:22:17.630Z,0.52
2023-05-06T09:23:17.679Z,0.51
2023-05-06T09:24:17.708Z,0.51
2023-05-06T09:25:17.759Z,0.51
2023-05-06T09:26:17.790Z,0.51
2023-05-06T09:27:17.914Z,0.51
2023-05-06T09:28:17.884Z,0.52
2023-05-06T09:29:17.950Z,0.51
2023-05-06T09:30:17.997Z,0.52
2023-05-06T09:31:18.103Z,0.51
2023-05-06T09:32:18.083Z,0.51
2023-05-06T09:33:18.150Z,0.51
2023-05-06T09:34:18.223Z,0.51
2023-05-06T09:35:18.258Z,0.50
2023-05-06T09:36:18.273Z,0.52
2023-05-06T09:37:18.341Z,0.51
2023-05-06T09:38:18.375Z,0.52
2023-05-06T09:39:18.470Z,0.51
2023-05-06T09:40:18.535Z,0.52
2023-05-06T09:41:18.582Z,0.51
2023-05-06T09:42:18.596Z,0.52
2023-05-06T09:43:18.931Z,0.51
2023-05-06T09:44:18.700Z,0.52
2023-05-06T09:45:18.738Z,0.51
2023-05-06T09:46:18.843Z,0.51
2023-05-06T09:47:18.871Z,0.51
2023-05-06T09:48:18.903Z,0.51
2023-05-06T09:49:18.984Z,0.51
2023-05-06T09:50:19.021Z,0.52
2023-05-06T09:51:19.053Z,0.51
2023-05-06T09:52:19.120Z,0.51
2023-05-06T09:53:19.310Z,0.51
2023-05-06T09:54:19.232Z,0.51
2023-05-06T09:55:19.292Z,0.51
2023-05-06T09:56:19.301Z,0.51
2023-05-06T09:57:19.382Z,0.51
2023-05-06T09:58:19.476Z,0.51
2023-05-06T09:59:19.679Z,0.51
2023-05-06T10:00:19.548Z,0.50
2023-05-06T10:01:32.577Z,0.52
2023-05-06T10:02:20.713Z,0.52
2023-05-06T10:03:19.614Z,0.52
2023-05-06T10:04:19.740Z,0.52
2023-05-06T10:05:19.617Z,0.52
2023-05-06T10:06:19.562Z,0.52
2023-05-06T10:07:19.543Z,0.52
2023-05-06T10:08:19.663Z,0.52
2023-05-06T10:09:19.541Z,0.52
2023-05-06T10:10:19.558Z,0.52
2023-05-06T10:11:19.514Z,0.53
2023-05-06T10:12:19.509Z,0.52
2023-05-06T10:13:19.577Z,0.51
2023-05-06T10:14:19.559Z,0.52
2023-05-06T10:15:19.797Z,0.52
2023-05-06T10:16:19.729Z,0.52
2023-05-06T10:17:19.725Z,0.52
2023-05-06T10:18:19.807Z,0.52
2023-05-06T10:19:19.868Z,0.52
2023-05-06T10:20:19.898Z,0.53
2023-05-06T10:21:19.919Z,0.53
2023-05-06T10:22:20.013Z,0.51
2023-05-06T10:23:20.214Z,0.52
2023-05-06T10:24:20.072Z,0.53
2023-05-06T10:25:20.161Z,0.50
2023-05-06T10:26:20.186Z,0.52
2023-05-06T10:27:20.253Z,0.51
2023-05-06T10:28:29.868Z,0.52
2023-05-06T10:29:21.328Z,0.52
2023-05-06T10:30:20.462Z,0.52
2023-05-06T10:31:20.572Z,0.52
2023-05-06T10:32:20.552Z,0.52
2023-05-06T10:33:20.679Z,0.52
2023-05-06T10:34:20.608Z,0.52
2023-05-06T10:35:20.680Z,0.52
2023-05-06T10:36:20.730Z,0.52
2023-05-06T10:37:20.757Z,0.52
2023-05-06T10:38:20.825Z,0.52
2023-05-06T10:39:20.819Z,0.52
2023-05-06T10:40:20.869Z,0.52
2023-05-06T10:41:20.880Z,0.53
2023-05-06T10:42:20.919Z,0.52
2023-05-06T10:43:20.952Z,0.52
2023-05-06T10:44:20.988Z,0.52
2023-05-06T10:45:21.009Z,0.52
2023-05-06T10:46:21.035Z,0.52
2023-05-06T10:47:21.091Z,0.51
2023-05-06T10:48:21.687Z,0.52
2023-05-06T10:49:21.208Z,0.51
2023-05-06T10:50:21.255Z,0.52
2023-05-06T10:51:21.267Z,0.52
2023-05-06T10:52:21.329Z,0.53
2023-05-06T10:53:21.366Z,0.52
2023-05-06T10:54:21.417Z,0.52
2023-05-06T10:55:21.444Z,0.52
2023-05-06T10:56:21.497Z,0.52
2023-05-06T10:57:21.560Z,0.52
2023-05-06T10:58:21.606Z,0.52
2023-05-06T10:59:21.630Z,0.52
2023-05-06T11:00:21.693Z,0.52
2023-05-06T11:01:21.781Z,0.52
2023-05-06T11:02:21.830Z,0.52
2023-05-06T11:03:22.219Z,0.51
2023-05-06T11:04:22.193Z,0.51
2023-05-06T11:05:21.927Z,0.53
2023-05-06T11:06:22.010Z,0.51
2023-05-06T11:07:22.042Z,0.52
2023-05-06T11:08:22.076Z,0.52
2023-05-06T11:09:22.172Z,0.52
2023-05-06T11:10:22.196Z,0.52
2023-05-06T11:11:22.237Z,0.51
2023-05-06T11:12:22.294Z,0.52
2023-05-06T11:13:22.411Z,0.52
2023-05-06T11:14:22.410Z,0.52
2023-05-06T11:15:22.453Z,0.52
2023-05-06T11:16:22.545Z,0.52
2023-05-06T11:17:22.562Z,0.52
2023-05-06T11:18:22.572Z,0.51
2023-05-06T11:19:22.761Z,0.52
2023-05-06T11:20:22.699Z,0.52
2023-05-06T11:21:22.712Z,0.52
2023-05-06T11:22:22.787Z,0.52
2023-05-06T11:23:22.831Z,0.51
2023-05-06T11:24:23.205Z,0.52
2023-05-06T11:25:22.941Z,0.51
2023-05-06T11:26:23.008Z,0.52
2023-05-06T11:27:23.007Z,0.51
2023-05-06T11:28:23.086Z,0.52
2023-05-06T11:29:23.123Z,0.51
2023-05-06T11:30:23.173Z,0.51
2023-05-06T11:31:23.300Z,0.52
2023-05-06T11:32:23.373Z,0.50
2023-05-06T11:33:23.327Z,0.52
2023-05-06T11:34:23.375Z,0.51
2023-05-06T11:35:23.471Z,0.51
2023-05-06T11:36:23.483Z,0.52
2023-05-06T11:37:23.560Z,0.52
2023-05-06T11:38:23.565Z,0.51
2023-05-06T11:39:23.625Z,0.52
2023-05-06T11:40:23.680Z,0.51
2023-05-06T11:41:23.750Z,0.52
2023-05-06T11:42:23.806Z,0.52
2023-05-06T11:43:23.850Z,0.52
2023-05-06T11:44:23.926Z,0.53
2023-05-06T11:45:23.961Z,0.52
2023-05-06T11:46:24.069Z,0.53
2023-05-06T11:47:24.073Z,0.52
2023-05-06T11:48:24.079Z,0.52
2023-05-06T11:49:24.153Z,0.52
2023-05-06T11:50:24.168Z,0.51
2023-05-06T11:51:24.303Z,0.52
2023-05-06T11:52:24.287Z,0.50
2023-05-06T11:53:24.328Z,0.51
2023-05-06T11:54:24.361Z,0.52
2023-05-06T11:55:24.433Z,0.51
2023-05-06T11:56:24.545Z,0.51
2023-05-06T11:57:24.505Z,0.52
2023-05-06T11:58:24.566Z,0.51
2023-05-06T11:59:24.596Z,0.52
2023-05-06T12:00:24.635Z,0.52
2023-05-06T12:01:24.686Z,0.50
2023-05-06T12:02:24.773Z,0.52
2023-05-06T12:03:24.959Z,0.52
2023-05-06T12:04:24.849Z,0.52
2023-05-06T12:05:24.872Z,0.52
2023-05-06T12:06:24.910Z,0.52
2023-05-06T12:07:24.949Z,0.51
2023-05-06T12:08:27.800Z,0.52
2023-05-06T12:09:25.000Z,0.53
2023-05-06T12:10:24.984Z,0.52
2023-05-06T12:11:24.967Z,0.52
2023-05-06T12:12:24.986Z,0.52
2023-05-06T12:13:25.035Z,0.52
2023-05-06T12:14:24.968Z,0.52
2023-05-06T12:15:24.963Z,0.53
2023-05-06T12:16:24.987Z,0.52
2023-05-06T12:17:24.980Z,0.52
2023-05-06T12:18:24.942Z,0.52
2023-05-06T12:19:24.930Z,0.52
2023-05-06T12:20:24.916Z,0.52
2023-05-06T12:21:24.891Z,0.53
2023-05-06T12:22:24.959Z,0.52
2023-05-06T12:23:24.983Z,0.52
2023-05-06T12:24:25.251Z,0.51
2023-05-06T12:25:24.906Z,0.50
2023-05-06T12:26:24.872Z,0.50
2023-05-06T12:27:24.873Z,0.50
2023-05-06T12:28:24.940Z,0.52
2023-05-06T12:29:24.852Z,0.51
2023-05-06T12:30:24.859Z,0.51
2023-05-06T12:31:24.863Z,0.51
2023-05-06T12:32:24.846Z,0.51
2023-05-06T12:33:24.813Z,0.52
2023-05-06T12:34:24.823Z,0.53
2023-05-06T12:35:24.824Z,0.53
2023-05-06T12:36:24.827Z,0.54
2023-05-06T12:37:24.803Z,0.53
2023-05-06T12:38:24.806Z,0.53
2023-05-06T12:39:25.305Z,0.53
2023-05-06T12:40:24.811Z,0.53
2023-05-06T12:41:24.813Z,0.53
2023-05-06T12:42:24.784Z,0.53
2023-05-06T12:43:24.755Z,0.54
2023-05-06T12:44:24.791Z,0.54
2023-05-06T12:45:24.754Z,0.53
2023-05-06T12:46:24.772Z,0.53
2023-05-06T12:47:24.835Z,0.54
2023-05-06T12:48:24.725Z,0.54
2023-05-06T12:49:24.716Z,0.54
2023-05-06T12:50:24.733Z,0.54
2023-05-06T12:51:24.727Z,0.54
2023-05-06T12:52:24.725Z,0.54
2023-05-06T12:53:24.698Z,0.54
2023-05-06T12:54:24.675Z,0.54
2023-05-06T12:55:24.756Z,0.54
2023-05-06T12:56:24.665Z,0.54
2023-05-06T12:57:24.677Z,0.55
2023-05-06T12:58:24.678Z,0.54
2023-05-06T12:59:24.700Z,0.54
2023-05-06T13:00:24.726Z,0.55
2023-05-06T13:01:32.003Z,0.54
2023-05-06T13:02:24.789Z,0.54
2023-05-06T13:03:24.799Z,0.54
2023-05-06T13:04:24.716Z,0.55
2023-05-06T13:05:24.708Z,0.54
2023-05-06T13:06:24.731Z,0.56
2023-05-06T13:07:24.721Z,0.55
2023-05-06T13:08:24.709Z,0.54
2023-05-06T13:09:24.709Z,0.54
2023-05-06T13:10:24.685Z,0.54
2023-05-06T13:11:24.745Z,0.55
2023-05-06T13:12:24.708Z,0.54
2023-05-06T13:13:24.737Z,0.55
2023-05-06T13:14:24.717Z,0.54
2023-05-06T13:15:24.669Z,0.55
2023-05-06T13:16:24.743Z,0.55
2023-05-06T13:17:24.724Z,0.55
2023-05-06T13:18:24.682Z,0.55
2023-05-06T13:19:32.397Z,0.54